createdAt,value
2019-05-22T00:01:29.752Z,25.37
2019-05-22T00:07:16.126Z,26.37
2019-05-22T00:13:36.743Z,28.40
2019-05-22T00:16:21.355Z,26.23
2019-05-22T00:19:03.607Z,26.00
2019-05-22T00:25:33.167Z,26.80
2019-05-22T00:28:24.305Z,29.13
2019-05-22T00:31:17.855Z,27.17
2019-05-22T00:37:18.944Z,27.27
2019-05-22T00:40:30.849Z,30.80
2019-05-22T00:43:30.124Z,31.40
2019-05-22T00:46:21.799Z,26.97
2019-05-22T00:49:02.342Z,32.03
2019-05-22T00:52:11.418Z,30.17
2019-05-22T00:55:20.159Z,32.40
2019-05-22T00:58:29.291Z,28.60
2019-05-22T01:01:37.658Z,31.17
2019-05-22T01:07:46.838Z,28.40
2019-05-22T01:19:49.032Z,30.43
2019-05-22T01:22:39.748Z,31.27
2019-05-22T01:28:59.336Z,32.83
2019-05-22T01:31:52.191Z,32.53
2019-05-22T01:34:42.222Z,31.73
2019-05-22T01:49:50.312Z,35.23
2019-05-22T01:58:48.220Z,33.60
2019-05-22T02:01:40.425Z,34.80
2019-05-22T02:04:30.681Z,34.13
2019-05-22T02:07:20.766Z,36.43
2019-05-22T02:10:32.985Z,34.40
2019-05-22T02:16:01.185Z,36.10
2019-05-22T02:18:52.617Z,36.40
2019-05-22T02:21:35.803Z,36.43
2019-05-22T02:24:18.600Z,41.90
2019-05-22T02:27:02.145Z,38.87
2019-05-22T02:29:45.584Z,39.60
2019-05-22T02:32:29.170Z,40.67
2019-05-22T02:35:11.308Z,36.70
2019-05-22T02:38:01.422Z,35.20
2019-05-22T02:43:48.799Z,40.17
2019-05-22T02:46:39.012Z,39.63
2019-05-22T02:49:24.022Z,38.13
2019-05-22T02:52:06.884Z,34.73
2019-05-22T02:54:50.015Z,38.37
2019-05-22T02:57:31.642Z,36.00
2019-05-22T03:00:12.740Z,35.27
2019-05-22T03:03:02.479Z,39.83
2019-05-22T03:05:52.141Z,36.10
2019-05-22T03:09:02.555Z,38.67
2019-05-22T03:14:54.798Z,35.83
2019-05-22T03:20:43.856Z,34.83
2019-05-22T03:23:57.386Z,34.50
2019-05-22T03:27:07.311Z,37.47
2019-05-22T03:30:17.523Z,39.33
2019-05-22T03:33:08.494Z,37.67
2019-05-22T03:36:18.924Z,36.53
2019-05-22T03:39:09.210Z,36.27
2019-05-22T03:41:59.094Z,38.60
2019-05-22T03:45:09.499Z,34.43
2019-05-22T03:47:59.645Z,36.83
2019-05-22T03:50:41.778Z,39.30
2019-05-22T03:53:23.860Z,37.90
2019-05-22T03:55:56.867Z,36.70
2019-05-22T03:58:46.998Z,33.17
2019-05-22T04:01:36.933Z,33.70
2019-05-22T04:04:45.391Z,36.77
2019-05-22T04:10:53.743Z,40.63
2019-05-22T04:19:52.051Z,36.27
2019-05-22T04:22:43.780Z,39.00
2019-05-22T04:25:53.656Z,41.73
2019-05-22T04:28:35.781Z,37.07
2019-05-22T04:31:17.886Z,38.80
2019-05-22T04:33:59.835Z,35.20
2019-05-22T04:36:40.409Z,38.07
2019-05-22T04:39:50.181Z,40.03
2019-05-22T04:45:41.030Z,39.23
2019-05-22T04:51:32.711Z,36.90
2019-05-22T04:54:22.288Z,37.13
2019-05-22T04:57:12.719Z,39.10
2019-05-22T05:00:04.156Z,38.30
2019-05-22T05:02:55.257Z,40.97
2019-05-22T05:06:06.875Z,37.67
2019-05-22T05:08:57.803Z,34.67
2019-05-22T05:11:49.557Z,45.83
2019-05-22T05:14:39.995Z,42.73
2019-05-22T05:17:31.271Z,39.17
2019-05-22T05:20:22.781Z,36.17
2019-05-22T05:22:53.470Z,36.03
2019-05-22T05:25:35.178Z,36.73
2019-05-22T05:28:17.433Z,33.83
2019-05-22T05:30:49.247Z,33.07
2019-05-22T05:33:52.022Z,30.73
2019-05-22T05:36:42.673Z,35.03
2019-05-22T05:42:42.884Z,37.17
2019-05-22T05:45:54.859Z,36.77
2019-05-22T05:48:28.547Z,35.33
2019-05-22T05:54:19.563Z,31.37
2019-05-22T05:56:53.839Z,34.23
2019-05-22T05:59:28.825Z,34.90
2019-05-22T06:02:20.532Z,36.17
2019-05-22T06:04:56.812Z,33.43
2019-05-22T06:07:47.742Z,30.50
2019-05-22T06:10:54.684Z,31.50
2019-05-22T06:13:25.462Z,35.53
2019-05-22T06:19:31.688Z,34.50
2019-05-22T06:25:14.385Z,29.40
2019-05-22T06:28:15.235Z,30.43
2019-05-22T06:31:05.835Z,30.10
2019-05-22T06:33:37.602Z,34.30
2019-05-22T06:36:16.794Z,26.40
2019-05-22T06:42:25.152Z,32.20
2019-05-22T06:44:57.376Z,26.77
2019-05-22T06:47:29.743Z,24.90
2019-05-22T06:50:01.455Z,32.47
2019-05-22T06:52:32.640Z,31.23
2019-05-22T06:55:07.921Z,24.40
2019-05-22T06:57:39.693Z,28.17
2019-05-22T07:00:29.903Z,27.97
2019-05-22T07:03:19.674Z,27.67
2019-05-22T07:06:09.463Z,28.93
2019-05-22T07:08:40.099Z,25.27
2019-05-22T07:11:13.383Z,26.33
2019-05-22T07:14:04.633Z,24.77
2019-05-22T07:16:54.432Z,25.77
2019-05-22T07:19:25.305Z,24.43
2019-05-22T07:21:56.705Z,20.87
2019-05-22T07:24:29.331Z,22.70
2019-05-22T07:27:34.701Z,22.17
2019-05-22T07:30:06.257Z,21.10
2019-05-22T07:36:07.647Z,26.77
2019-05-22T07:38:39.662Z,20.90
2019-05-22T07:41:11.695Z,24.33
2019-05-22T07:43:43.523Z,22.03
2019-05-22T07:46:14.390Z,25.23
2019-05-22T07:49:04.001Z,21.63
2019-05-22T07:51:51.517Z,25.83
2019-05-22T07:54:29.445Z,23.63
2019-05-22T07:57:39.613Z,23.47
2019-05-22T08:00:12.711Z,21.57
2019-05-22T08:03:02.586Z,23.33
2019-05-22T08:05:55.008Z,19.67
2019-05-22T08:08:37.291Z,19.43
2019-05-22T08:11:19.833Z,24.00
2019-05-22T08:14:01.751Z,22.80
2019-05-22T08:16:43.509Z,20.20
2019-05-22T08:19:25.152Z,23.50
2019-05-22T08:22:07.641Z,21.77
2019-05-22T08:24:57.693Z,27.47
2019-05-22T08:28:09.504Z,24.60
2019-05-22T08:31:19.260Z,17.63
2019-05-22T08:33:51.628Z,16.43
2019-05-22T08:37:01.457Z,15.83
2019-05-22T08:39:52.310Z,18.37
2019-05-22T08:42:24.900Z,14.87
2019-05-22T08:45:35.236Z,19.33
2019-05-22T08:48:25.091Z,17.27
2019-05-22T08:50:58.895Z,16.57
2019-05-22T08:53:49.115Z,14.90
2019-05-22T08:56:39.068Z,16.27
2019-05-22T08:59:28.694Z,18.10
2019-05-22T09:02:18.572Z,16.77
2019-05-22T09:05:08.351Z,14.83
2019-05-22T09:07:58.689Z,13.50
2019-05-22T09:10:46.815Z,18.60
2019-05-22T09:13:44.270Z,13.53
2019-05-22T09:16:35.520Z,13.53
2019-05-22T09:19:28.471Z,10.43
2019-05-22T09:22:04.634Z,9.63
2019-05-22T09:24:37.088Z,10.27
2019-05-22T09:27:11.611Z,9.97
2019-05-22T09:29:43.558Z,13.83
2019-05-22T09:32:14.901Z,10.10
2019-05-22T09:38:17.467Z,13.43
2019-05-22T09:41:08.541Z,13.17
2019-05-22T09:43:58.168Z,11.47
2019-05-22T09:46:40.232Z,10.73
2019-05-22T09:49:24.007Z,9.50
2019-05-22T09:52:05.574Z,12.70
2019-05-22T09:57:26.825Z,14.07
2019-05-22T10:00:09.320Z,9.93
2019-05-22T10:02:59.373Z,11.43
2019-05-22T10:05:50.367Z,10.83
2019-05-22T10:08:58.854Z,8.47
2019-05-22T10:11:30.623Z,12.53
2019-05-22T10:14:21.019Z,10.13
2019-05-22T10:16:52.187Z,9.47
2019-05-22T10:19:44.516Z,9.70
2019-05-22T10:22:36.835Z,7.07
2019-05-22T10:25:26.570Z,9.80
2019-05-22T10:31:17.939Z,9.63
2019-05-22T10:34:09.435Z,9.60
2019-05-22T10:37:00.179Z,10.93
2019-05-22T10:39:50.854Z,10.13
2019-05-22T10:42:44.633Z,7.27
2019-05-22T10:51:49.331Z,7.83
2019-05-22T10:54:40.289Z,10.00
2019-05-22T11:03:08.104Z,8.20
2019-05-22T11:06:07.064Z,9.63
2019-05-22T11:08:51.389Z,9.33
2019-05-22T11:12:04.412Z,10.10
2019-05-22T11:14:39.047Z,10.67
2019-05-22T11:17:28.999Z,7.67
2019-05-22T11:20:19.958Z,9.60
2019-05-22T11:22:52.514Z,7.33
2019-05-22T11:25:31.463Z,7.27
2019-05-22T11:28:04.608Z,7.87
2019-05-22T11:30:54.729Z,6.43
2019-05-22T11:33:44.780Z,4.70
2019-05-22T11:36:36.798Z,5.50
2019-05-22T11:39:39.366Z,7.10
2019-05-22T11:42:22.998Z,6.20
2019-05-22T11:47:51.282Z,7.23
2019-05-22T11:50:42.936Z,7.47
2019-05-22T11:53:35.191Z,6.33
2019-05-22T11:56:08.213Z,7.53
2019-05-22T11:58:40.874Z,8.03
2019-05-22T12:01:13.301Z,9.57
2019-05-22T12:03:46.580Z,11.53
2019-05-22T12:06:18.321Z,7.77
2019-05-22T12:09:13.168Z,7.87
2019-05-22T12:11:48.573Z,8.60
2019-05-22T12:14:40.736Z,7.17
2019-05-22T12:17:15.566Z,7.40
2019-05-22T12:19:49.863Z,7.50
2019-05-22T12:22:20.755Z,8.07
2019-05-22T12:25:31.105Z,6.67
2019-05-22T12:28:23.123Z,8.10
2019-05-22T12:31:13.053Z,7.90
2019-05-22T12:34:02.978Z,7.03
2019-05-22T12:36:52.816Z,6.83
2019-05-22T12:39:24.836Z,7.37
2019-05-22T12:42:18.432Z,8.87
2019-05-22T12:47:29.441Z,7.33
2019-05-22T12:50:01.093Z,7.07
2019-05-22T12:52:34.477Z,7.70
2019-05-22T12:55:09.281Z,7.50
2019-05-22T12:58:20.074Z,7.83
2019-05-22T13:01:10.724Z,8.13
2019-05-22T13:03:43.684Z,8.17
2019-05-22T13:06:35.292Z,6.93
2019-05-22T13:09:27.301Z,7.93
2019-05-22T13:12:19.954Z,7.50
2019-05-22T13:15:11.049Z,6.87
2019-05-22T13:21:00.666Z,5.57
2019-05-22T13:24:10.805Z,7.17
2019-05-22T13:33:16.094Z,5.67
2019-05-22T13:35:49.192Z,6.23
2019-05-22T13:38:21.719Z,5.40
2019-05-22T13:41:11.674Z,6.03
2019-05-22T13:44:01.621Z,4.47
2019-05-22T13:46:34.602Z,6.13
2019-05-22T13:49:24.330Z,5.57
2019-05-22T13:51:55.376Z,7.20
2019-05-22T13:54:28.448Z,6.03
2019-05-22T13:56:59.585Z,6.87
2019-05-22T13:59:49.198Z,8.20
2019-05-22T14:02:43.885Z,4.40
2019-05-22T14:05:34.879Z,4.50
2019-05-22T14:08:26.427Z,6.37
2019-05-22T14:11:18.249Z,5.97
2019-05-22T14:13:53.182Z,6.67
2019-05-22T14:16:48.668Z,4.93
2019-05-22T14:19:35.383Z,4.87
2019-05-22T14:22:48.404Z,4.00
2019-05-22T14:25:58.449Z,4.10
2019-05-22T14:28:48.129Z,4.33
2019-05-22T14:31:19.701Z,6.57
2019-05-22T14:34:10.212Z,4.53
2019-05-22T14:36:52.604Z,4.93
2019-05-22T14:39:47.281Z,5.40
2019-05-22T14:42:37.190Z,5.97
2019-05-22T14:45:09.720Z,4.90
2019-05-22T14:47:59.953Z,4.77
2019-05-22T14:50:49.668Z,5.83
2019-05-22T14:53:40.600Z,3.53
2019-05-22T14:59:07.416Z,7.53
2019-05-22T15:02:05.163Z,3.93
2019-05-22T15:04:45.721Z,3.70
2019-05-22T15:11:14.975Z,5.27
2019-05-22T15:13:11.470Z,3.60
2019-05-22T15:15:44.350Z,4.53
2019-05-22T15:18:34.383Z,4.40
2019-05-22T15:24:05.738Z,5.00
2019-05-22T15:26:58.839Z,5.57
2019-05-22T15:30:13.544Z,5.37
2019-05-22T15:33:19.991Z,3.87
2019-05-22T15:36:15.250Z,4.87
2019-05-22T15:38:56.690Z,4.60
2019-05-22T15:41:40.633Z,3.10
2019-05-22T15:44:31.394Z,3.40
2019-05-22T15:47:02.306Z,4.70
2019-05-22T15:50:10.818Z,3.90
2019-05-22T15:53:22.199Z,4.13
2019-05-22T15:56:12.443Z,5.40
2019-05-22T16:02:50.913Z,7.87
2019-05-22T16:05:42.302Z,5.07
2019-05-22T16:08:40.920Z,4.00
2019-05-22T16:11:31.588Z,4.30
2019-05-22T16:17:16.081Z,6.60
2019-05-22T16:20:07.730Z,4.63
2019-05-22T16:22:59.011Z,4.87
2019-05-22T16:25:50.068Z,7.30
2019-05-22T16:29:04.443Z,5.63
2019-05-22T16:34:30.274Z,4.50
2019-05-22T16:37:11.345Z,4.77
2019-05-22T16:43:19.541Z,6.53
2019-05-22T16:45:50.253Z,6.73
2019-05-22T16:48:43.683Z,5.70
2019-05-22T16:54:47.639Z,5.23
2019-05-22T16:57:57.801Z,5.47
2019-05-22T17:00:49.578Z,4.20
2019-05-22T17:06:49.825Z,4.13
2019-05-22T17:10:04.848Z,4.10
2019-05-22T17:12:47.672Z,4.47
2019-05-22T17:15:30.924Z,5.63
2019-05-22T17:18:13.075Z,6.97
2019-05-22T17:20:55.211Z,3.93
2019-05-22T17:23:37.102Z,4.70
2019-05-22T17:26:28.085Z,3.53
2019-05-22T17:29:17.864Z,4.20
2019-05-22T17:35:18.527Z,4.70
2019-05-22T17:38:09.608Z,3.80
2019-05-22T17:40:51.240Z,4.43
2019-05-22T17:43:24.629Z,4.13
2019-05-22T17:45:58.835Z,3.73
2019-05-22T17:48:31.701Z,4.77
2019-05-22T17:51:22.337Z,5.90
2019-05-22T17:54:13.842Z,5.03
2019-05-22T17:56:45.914Z,4.63
2019-05-22T17:59:36.492Z,5.37
2019-05-22T18:02:13.937Z,6.30
2019-05-22T18:05:06.623Z,4.73
2019-05-22T18:07:56.529Z,5.33
2019-05-22T18:10:50.983Z,5.57
2019-05-22T18:13:22.361Z,4.93
2019-05-22T18:15:53.668Z,4.27
2019-05-22T18:18:44.356Z,4.07
2019-05-22T18:21:15.534Z,3.67
2019-05-22T18:23:46.841Z,4.17
2019-05-22T18:26:36.967Z,5.93
2019-05-22T18:29:08.908Z,5.80
2019-05-22T18:31:43.293Z,4.70
2019-05-22T18:34:18.080Z,7.23
2019-05-22T18:37:10.469Z,5.30
2019-05-22T18:40:03.570Z,5.13
2019-05-22T18:42:35.984Z,5.03
2019-05-22T18:45:08.483Z,4.90
2019-05-22T18:47:40.486Z,3.73
2019-05-22T18:50:12.720Z,5.37
2019-05-22T18:53:04.891Z,5.20
2019-05-22T18:55:55.367Z,4.47
2019-05-22T18:58:30.585Z,5.27
2019-05-22T19:01:21.881Z,6.03
2019-05-22T19:03:53.747Z,5.23
2019-05-22T19:06:44.483Z,5.07
2019-05-22T19:09:36.140Z,7.63
2019-05-22T19:12:27.452Z,5.80
2019-05-22T19:15:20.876Z,5.20
2019-05-22T19:18:27.276Z,8.67
2019-05-22T19:21:19.696Z,7.30
2019-05-22T19:24:09.718Z,7.80
2019-05-22T19:26:59.809Z,6.50
2019-05-22T19:29:52.667Z,6.57
2019-05-22T19:32:43.959Z,4.83
2019-05-22T19:35:34.037Z,7.17
2019-05-22T19:38:24.722Z,8.33
2019-05-22T19:44:24.899Z,8.57
2019-05-22T19:47:15.785Z,7.77
2019-05-22T19:50:20.768Z,7.23
2019-05-22T19:55:58.375Z,7.57
2019-05-22T19:59:10.634Z,11.13
2019-05-22T20:07:52.405Z,6.83
2019-05-22T20:10:42.797Z,7.63
2019-05-22T20:13:33.563Z,7.40
2019-05-22T20:18:43.038Z,7.70
2019-05-22T20:21:34.175Z,7.70
2019-05-22T20:24:24.543Z,9.17
2019-05-22T20:27:14.275Z,8.13
2019-05-22T20:30:04.341Z,8.90
2019-05-22T20:32:54.562Z,9.40
2019-05-22T20:35:44.956Z,9.23
2019-05-22T20:38:35.063Z,8.30
2019-05-22T20:41:17.964Z,8.43
2019-05-22T20:44:02.712Z,11.97
2019-05-22T20:46:37.639Z,9.17
2019-05-22T20:49:26.631Z,12.33
2019-05-22T20:52:36.881Z,9.40
2019-05-22T21:01:41.077Z,12.10
2019-05-22T21:04:16.343Z,12.40
2019-05-22T21:07:09.921Z,9.93
2019-05-22T21:09:42.413Z,12.67
2019-05-22T21:12:35.902Z,11.77
2019-05-22T21:15:47.765Z,13.10
2019-05-22T21:19:01.945Z,12.70
2019-05-22T21:21:52.907Z,11.67
2019-05-22T21:27:39.791Z,11.23
2019-05-22T21:30:29.908Z,15.73
2019-05-22T21:33:22.619Z,13.90
2019-05-22T21:36:15.106Z,11.27
2019-05-22T21:38:53.236Z,11.77
2019-05-22T21:41:40.972Z,13.23
2019-05-22T21:44:19.883Z,14.60
2019-05-22T21:47:10.601Z,12.17
2019-05-22T21:50:19.147Z,13.47
2019-05-22T21:53:00.530Z,13.13
2019-05-22T21:55:32.234Z,16.80
2019-05-22T21:58:05.223Z,13.47
2019-05-22T22:01:13.707Z,15.63
2019-05-22T22:06:46.403Z,14.37
2019-05-22T22:09:27.788Z,14.60
2019-05-22T22:18:57.113Z,15.50
2019-05-22T22:22:09.018Z,17.07
2019-05-22T22:24:41.301Z,15.83
2019-05-22T22:27:32.707Z,12.33
2019-05-22T22:30:21.160Z,16.40
2019-05-22T22:32:52.674Z,16.87
2019-05-22T22:35:42.946Z,14.53
2019-05-22T22:38:52.036Z,17.30
2019-05-22T22:41:42.954Z,17.47
2019-05-22T22:44:32.795Z,21.57
2019-05-22T22:47:43.894Z,18.23
2019-05-22T22:53:31.622Z,19.13
2019-05-22T22:56:22.341Z,18.83
2019-05-22T22:59:13.237Z,21.77
2019-05-22T23:04:51.198Z,17.27
2019-05-22T23:07:32.539Z,22.83
2019-05-22T23:12:59.453Z,18.10
2019-05-22T23:15:42.238Z,22.40
2019-05-22T23:18:23.683Z,23.60
2019-05-22T23:21:09.115Z,20.73
2019-05-22T23:26:16.591Z,19.03
2019-05-22T23:28:47.280Z,23.27
2019-05-22T23:31:19.123Z,21.67
2019-05-22T23:34:09.690Z,20.33
2019-05-22T23:37:02.819Z,20.53
2019-05-22T23:39:54.337Z,22.03
2019-05-22T23:46:00.678Z,24.43
2019-05-22T23:48:50.173Z,23.10
2019-05-22T23:51:40.836Z,20.07
2019-05-22T23:54:35.014Z,20.07
